Time;durP1;ratioP1;P1;durP2;ratioP2;P2;SDS_P1;SDS_P2;PMS_P1;PMS_P2;Temp;Humidity;BMP_temperature;BMP_pressure;BME280_temperature;BME280_humidity;BME280_pressure;Samples;Min_cycle;Max_cycle;Signal;HPM_P1;HPM_P2
2023/08/24 00:02:02;;;;;;;;;;;;;;;20.55;54.99;100650.17;105137;1259;64920;-53
2023/08/24 00:04:29;;;;;;;;;;;;;;;20.50;54.97;100646.69;106304;1256;62007;-53
2023/08/24 00:06:57;;;;;;;;;;;;;;;20.43;54.70;100651.46;104991;1262;63780;-53
2023/08/24 00:09:24;;;;;;;;;;;;;;;20.35;54.48;100645.17;105051;1257;60556;-53
2023/08/24 00:11:52;;;;;;;;;;;;;;;20.27;54.61;100645.27;105423;1262;61770;-54
2023/08/24 00:14:20;;;;;;;;;;;;;;;20.20;54.76;100650.64;105046;1263;64946;-54
2023/08/24 00:16:47;;;;;;;;;;;;;;;20.15;55.13;100655.55;105055;1256;61473;-54
2023/08/24 00:19:15;;;;;;;;;;;;;;;20.09;55.56;100657.85;105069;1260;63827;-54
2023/08/24 00:21:42;;;;;;;;;;;;;;;20.04;56.27;100658.90;105158;1259;60583;-58
2023/08/24 00:24:09;;;;;;;;;;;;;;;20.00;57.13;100653.94;105077;1256;60615;-54
2023/08/24 00:26:37;;;;;;;;;;;;;;;19.97;57.41;100654.13;104979;1263;65587;-54
2023/08/24 00:29:04;;;;;;;;;;;;;;;19.99;57.47;100658.61;105084;1262;60451;-54
2023/08/24 00:31:32;;;;;;;;;;;;;;;20.05;57.33;100659.01;104926;1260;63803;-54
2023/08/24 00:34:00;;;;;;;;;;;;;;;20.11;56.97;100657.84;104975;1264;60591;-58
2023/08/24 00:36:28;;;;;;;;;;;;;;;20.16;56.94;100659.02;106761;1262;60562;-56
2023/08/24 00:38:55;;;;;;;;;;;;;;;20.20;56.96;100659.10;104968;1260;63790;-55
2023/08/24 00:41:25;;;;;;;;;;;;;;;20.23;56.53;100658.38;104741;1264;60499;-55
2023/08/24 00:43:53;;;;;;;;;;;;;;;20.25;56.23;100652.27;104921;1261;64219;-56
2023/08/24 00:46:22;;;;;;;;;;;;;;;20.23;56.20;100651.02;105327;1256;60580;-55
2023/08/24 00:48:51;;;;;;;;;;;;;;;20.19;56.20;100655.31;104916;1256;59437;-56
2023/08/24 00:51:19;;;;;;;;;;;;;;;20.13;56.11;100660.12;105011;1262;64982;-55
2023/08/24 00:53:46;;;;;;;;;;;;;;;20.08;55.85;100660.33;104875;1256;61890;-55
2023/08/24 00:56:14;;;;;;;;;;;;;;;20.03;55.66;100656.19;105323;1263;64122;-55
2023/08/24 00:58:41;;;;;;;;;;;;;;;19.99;55.79;100656.76;105213;1262;60585;-55
2023/08/24 01:01:09;;;;;;;;;;;;;;;19.91;56.03;100656.04;105315;1261;60569;-57
2023/08/24 01:03:36;;;;;;;;;;;;;;;19.83;56.07;100655.73;105064;1258;65132;-55
2023/08/24 01:06:04;;;;;;;;;;;;;;;19.76;56.36;100653.42;105145;1262;61882;-55
2023/08/24 01:08:32;;;;;;;;;;;;;;;19.70;56.77;100652.88;105171;1258;63744;-56
2023/08/24 01:11:07;;;;;;;;;;;;;;;19.62;57.12;100653.08;105209;1260;63459;-55
2023/08/24 01:13:41;;;;;;;;;;;;;;;19.56;57.61;100653.95;105095;1262;60485;-56
2023/08/24 01:16:12;;;;;;;;;;;;;;;19.51;58.09;100650.77;105083;1257;65448;-56
2023/08/24 01:18:40;;;;;;;;;;;;;;;19.47;58.38;100649.59;105041;1257;61546;-55
2023/08/24 01:21:35;;;;;;;;;;;;;;;19.43;58.71;100653.41;105274;1256;62491;-58
2023/08/24 01:24:04;;;;;;;;;;;;;;;19.38;59.25;100653.59;104996;1263;60470;-56
2023/08/24 01:26:32;;;;;;;;;;;;;;;19.34;59.49;100654.79;104742;1270;61465;-55
2023/08/24 01:28:59;;;;;;;;;;;;;;;19.30;59.86;100654.17;104832;1262;64947;-55
2023/08/24 01:31:27;;;;;;;;;;;;;;;19.27;60.18;100653.79;104994;1260;61451;-55
2023/08/24 01:33:55;;;;;;;;;;;;;;;19.25;60.58;100656.33;104973;1260;64080;-55
2023/08/24 01:36:23;;;;;;;;;;;;;;;19.23;60.51;100657.38;104935;1260;60623;-54
2023/08/24 01:38:58;;;;;;;;;;;;;;;19.22;60.09;100659.20;104962;1259;60717;-55
2023/08/24 01:41:26;;;;;;;;;;;;;;;19.22;59.73;100662.08;104825;1262;63700;-57
2023/08/24 01:43:54;;;;;;;;;;;;;;;19.20;59.71;100661.17;104796;1265;60469;-55
2023/08/24 01:46:22;;;;;;;;;;;;;;;19.19;59.67;100658.98;105531;1260;63784;-54
2023/08/24 01:52:18;;;;;;;;;;;;;;;19.11;59.82;100654.05;104864;1259;60455;-55
2023/08/24 01:54:46;;;;;;;;;;;;;;;19.09;60.05;100656.92;104204;1265;72471;-55
2023/08/24 01:57:14;;;;;;;;;;;;;;;19.08;60.01;100657.85;104426;1266;61394;-55
2023/08/24 01:59:41;;;;;;;;;;;;;;;19.06;60.02;100658.34;104506;1266;63721;-55
2023/08/24 02:02:09;;;;;;;;;;;;;;;19.02;59.69;100661.54;104504;1269;60412;-56
2023/08/24 02:04:36;;;;;;;;;;;;;;;18.98;59.53;100663.36;104871;1267;60461;-55
2023/08/24 02:07:04;;;;;;;;;;;;;;;18.92;59.26;100667.84;104841;1262;63747;-56
2023/08/24 02:12:49;;;;;;;;;;;;;;;18.85;59.11;100669.35;104694;1265;62521;-55
2023/08/24 02:15:20;;;;;;;;;;;;;;;18.80;59.63;100673.11;104400;1268;60785;-56
2023/08/24 02:17:48;;;;;;;;;;;;;;;18.73;59.99;100672.61;104632;1265;60639;-56
2023/08/24 02:20:15;;;;;;;;;;;;;;;18.67;60.29;100671.79;104683;1265;65060;-56
2023/08/24 02:23:11;;;;;;;;;;;;;;;18.64;60.42;100671.81;104542;1266;62536;-57
2023/08/24 02:25:47;;;;;;;;;;;;;;;18.62;60.44;100669.60;104406;1268;63772;-55
2023/08/24 02:28:14;;;;;;;;;;;;;;;18.59;60.55;100669.73;104441;1266;61000;-55
2023/08/24 02:30:42;;;;;;;;;;;;;;;18.56;60.71;100669.88;104495;1271;60469;-56
2023/08/24 02:33:09;;;;;;;;;;;;;;;18.52;60.83;100668.11;104897;1261;64777;-55
2023/08/24 02:35:37;;;;;;;;;;;;;;;18.51;61.22;100672.18;104857;1263;70636;-54
2023/08/24 02:38:05;;;;;;;;;;;;;;;18.55;61.33;100670.70;104885;1261;63723;-53
2023/08/24 02:40:33;;;;;;;;;;;;;;;18.59;61.05;100672.36;104842;1264;60652;-56
2023/08/24 02:43:00;;;;;;;;;;;;;;;18.62;61.00;100669.85;104758;1262;60371;-55
2023/08/24 02:45:28;;;;;;;;;;;;;;;18.64;60.83;100669.72;104526;1262;64988;-55
2023/08/24 02:47:55;;;;;;;;;;;;;;;18.64;60.64;100673.21;104976;1263;60457;-55
2023/08/24 02:50:23;;;;;;;;;;;;;;;18.65;60.66;100678.85;104874;1260;63712;-55
2023/08/24 02:52:51;;;;;;;;;;;;;;;18.63;60.54;100679.69;105077;1260;60546;-55
2023/08/24 02:55:18;;;;;;;;;;;;;;;18.62;60.61;100677.59;105093;1263;60472;-55
2023/08/24 02:57:46;;;;;;;;;;;;;;;18.58;60.84;100680.10;105193;1257;65634;-49
2023/08/24 03:00:15;;;;;;;;;;;;;;;18.56;60.98;100681.76;104987;1265;61876;-50
2023/08/24 03:02:43;;;;;;;;;;;;;;;18.54;61.09;100678.77;105409;1263;63704;-49
2023/08/24 03:05:11;;;;;;;;;;;;;;;18.52;61.24;100679.16;105841;1263;60570;-49
2023/08/24 03:07:41;;;;;;;;;;;;;;;18.49;61.14;100678.60;104865;1265;60426;-49
2023/08/24 03:10:48;;;;;;;;;;;;;;;18.45;61.16;100676.34;104871;1263;64940;-49
2023/08/24 03:13:16;;;;;;;;;;;;;;;18.40;61.11;100675.27;104551;1270;60570;-48
2023/08/24 03:16:27;;;;;;;;;;;;;;;18.35;61.08;100674.91;104993;1260;72620;-48
2023/08/24 03:18:59;;;;;;;;;;;;;;;18.31;61.10;100676.80;104763;1266;60505;-50
2023/08/24 03:21:37;;;;;;;;;;;;;;;18.31;61.00;100676.48;104397;1256;60589;-50
2023/08/24 03:24:07;;;;;;;;;;;;;;;18.33;60.96;100677.81;104776;1263;63839;-50
2023/08/24 03:26:39;;;;;;;;;;;;;;;18.36;60.64;100679.64;104479;1267;61385;-53
2023/08/24 03:29:06;;;;;;;;;;;;;;;18.39;60.54;100677.88;105123;1261;64621;-50
2023/08/24 03:31:36;;;;;;;;;;;;;;;18.44;60.53;100684.30;105194;1263;60715;-54
2023/08/24 03:34:07;;;;;;;;;;;;;;;18.48;60.35;100686.32;104385;1273;60509;-53
2023/08/24 03:36:35;;;;;;;;;;;;;;;18.49;60.06;100683.77;104615;1266;64883;-51
2023/08/24 03:39:02;;;;;;;;;;;;;;;18.48;59.95;100686.89;105095;1262;62383;-52
2023/08/24 03:41:30;;;;;;;;;;;;;;;18.49;60.09;100683.40;104230;1274;62514;-52
2023/08/24 03:44:29;;;;;;;;;;;;;;;18.50;60.15;100683.10;105127;1266;60594;-51
2023/08/24 03:50:00;;;;;;;;;;;;;;;18.49;59.95;100691.59;104397;1266;63753;-54
2023/08/24 03:52:28;;;;;;;;;;;;;;;18.48;60.03;100694.02;104458;1270;60546;-56
2023/08/24 03:54:55;;;;;;;;;;;;;;;18.46;60.31;100693.02;104418;1271;62631;-52
2023/08/24 03:57:23;;;;;;;;;;;;;;;18.44;60.47;100698.15;104484;1262;60482;-54
2023/08/24 03:59:50;;;;;;;;;;;;;;;18.45;60.64;100699.33;104643;1268;60595;-55
2023/08/24 04:02:18;;;;;;;;;;;;;;;18.45;60.69;100701.98;104939;1262;64927;-51
2023/08/24 04:04:46;;;;;;;;;;;;;;;18.45;60.77;100702.85;104682;1263;61389;-53
2023/08/24 04:07:13;;;;;;;;;;;;;;;18.45;60.66;100703.39;104818;1263;63777;-54
2023/08/24 04:09:41;;;;;;;;;;;;;;;18.46;60.23;100701.66;104439;1269;60572;-54
2023/08/24 04:12:08;;;;;;;;;;;;;;;18.49;59.83;100700.13;104573;1265;60412;-52
2023/08/24 04:14:36;;;;;;;;;;;;;;;18.52;59.64;100698.21;104789;1268;66079;-56
2023/08/24 04:17:03;;;;;;;;;;;;;;;18.55;59.83;100697.82;104496;1262;61375;-50
2023/08/24 04:19:31;;;;;;;;;;;;;;;18.60;59.61;100698.14;105028;1257;65043;-49
2023/08/24 04:21:58;;;;;;;;;;;;;;;18.65;59.10;100696.81;105256;1263;60497;-49
2023/08/24 04:24:26;;;;;;;;;;;;;;;18.69;58.72;100694.55;105012;1263;60453;-55
2023/08/24 04:26:53;;;;;;;;;;;;;;;18.73;58.67;100691.48;105195;1262;63759;-53
2023/08/24 04:29:20;;;;;;;;;;;;;;;18.79;58.70;100688.70;104962;1264;61359;-51
2023/08/24 04:31:48;;;;;;;;;;;;;;;18.86;58.64;100693.48;105055;1260;63741;-55
2023/08/24 04:34:15;;;;;;;;;;;;;;;18.94;58.61;100692.89;105140;1262;60498;-53
2023/08/24 04:36:43;;;;;;;;;;;;;;;19.06;58.16;100698.34;105056;1262;60511;-55
2023/08/24 04:39:10;;;;;;;;;;;;;;;19.19;57.99;100700.66;105028;1271;63707;-57
2023/08/24 04:41:38;;;;;;;;;;;;;;;19.33;57.75;100700.65;104734;1264;63791;-53
2023/08/24 04:44:07;;;;;;;;;;;;;;;19.49;57.74;100702.05;104762;1263;63702;-59
2023/08/24 04:46:35;;;;;;;;;;;;;;;19.67;57.68;100702.71;104806;1263;61219;-53
2023/08/24 04:49:03;;;;;;;;;;;;;;;19.85;57.49;100700.67;104598;1260;60820;-56
2023/08/24 04:51:30;;;;;;;;;;;;;;;20.03;57.41;100696.85;104584;1263;64934;-56
2023/08/24 04:53:58;;;;;;;;;;;;;;;20.23;57.32;100694.92;104993;1262;61323;-55
2023/08/24 04:56:25;;;;;;;;;;;;;;;20.41;57.25;100690.53;104737;1260;63745;-55
2023/08/24 04:58:54;;;;;;;;;;;;;;;20.57;57.26;100690.56;104873;1263;61343;-56
2023/08/24 05:01:22;;;;;;;;;;;;;;;20.72;56.95;100689.52;104764;1257;61408;-54
2023/08/24 05:08:26;;;;;;;9.50;6.00;;;;;;;20.73;56.83;100686.41;101902;1291;606491;-55
2023/08/24 05:10:54;;;;;;;11.20;7.00;;;;;;;21.10;55.88;100686.64;103999;1276;60019;-54
2023/08/24 05:13:22;;;;;;;9.40;7.00;;;;;;;21.20;55.24;100689.70;104687;1266;59585;-56
2023/08/24 05:16:50;;;;;;;11.60;7.30;;;;;;;21.26;55.03;100692.71;104078;1267;64017;-56
2023/08/24 05:19:20;;;;;;;;;;;;;;;21.31;54.66;100691.41;104155;1266;61390;-57
2023/08/24 05:22:12;;;;;;;;;;;;;;;21.35;54.28;100691.70;96813;1262;10299897;-56
2023/08/24 05:27:56;;;;;;;;;;;;;;;21.41;54.43;100694.51;104654;1264;62264;-49
2023/08/24 05:30:24;;;;;;;;;;;;;;;21.46;54.46;100693.55;104392;1264;65280;-52
2023/08/24 05:32:53;;;;;;;;;;;;;;;21.52;54.32;100689.44;104773;1263;59376;-49
2023/08/24 05:35:37;;;;;;;;;;;;;;;21.59;54.33;100690.39;104053;1265;59754;-50
2023/08/24 05:38:04;;;;;;;;;;;;;;;21.63;53.96;100690.61;104680;1267;64252;-50
2023/08/24 05:40:33;;;;;;;;;;;;;;;21.67;53.79;100694.18;104802;1267;60933;-50
2023/08/24 05:42:59;;;;;;;;;;;;;;;21.69;53.43;100691.82;104661;1263;64056;-53
2023/08/24 05:45:26;;;;;;;;;;;;;;;21.74;54.04;100693.98;104837;1263;59732;-52
2023/08/24 05:47:53;;;;;;;;;;;;;;;21.80;54.37;100692.85;104827;1264;59689;-51
2023/08/24 05:50:20;;;;;;;;;;;;;;;21.86;54.52;100689.83;104611;1268;64555;-50
2023/08/24 05:52:47;;;;;;;;;;;;;;;21.92;54.10;100686.75;104486;1267;61855;-53
2023/08/24 05:55:14;;;;;;;;;;;;;;;21.98;53.89;100684.68;104700;1264;63836;-48
2023/08/24 05:57:40;;;;;;;;;;;;;;;22.05;53.63;100685.05;104743;1264;59748;-49
2023/08/24 06:00:09;;;;;;;;;;;;;;;22.16;52.70;100681.60;105018;1264;59677;-49
2023/08/24 06:02:41;;;;;;;;;;;;;;;22.28;51.66;100681.73;104757;1268;64532;-56
2023/08/24 06:05:08;;;;;;;;;;;;;;;22.42;51.04;100685.04;104820;1267;60262;-58
2023/08/24 06:07:36;;;;;;;;;;;;;;;22.56;50.80;100677.67;104613;1264;62796;-59
2023/08/24 06:10:15;;;;;;;;;;;;;;;22.73;50.42;100678.20;104472;1264;59956;-59
2023/08/24 06:12:44;;;;;;;;;;;;;;;22.87;49.03;100680.12;104656;1278;59855;-56
2023/08/24 06:15:13;;;;;;;;;;;;;;;22.98;47.99;100676.81;104624;1264;64451;-58
2023/08/24 06:17:39;;;;;;;;;;;;;;;23.07;48.04;100676.23;104807;1267;61814;-55
2023/08/24 06:20:10;;;;;;;;;;;;;;;23.17;49.80;100676.37;104941;1261;64271;-58
2023/08/24 06:22:40;;;;;;;;;;;;;;;23.25;50.59;100672.27;104231;1260;59576;-57
2023/08/24 06:25:08;;;;;;;;;;;;;;;23.32;50.46;100673.88;104877;1260;59752;-56
2023/08/24 06:27:35;;;;;;;;;;;;;;;23.37;49.46;100674.34;104819;1261;62952;-55
2023/08/24 06:30:03;;;;;;;;;;;;;;;23.40;49.09;100672.50;105260;1261;61375;-55
2023/08/24 06:32:30;;;;;;;;;;;;;;;23.40;47.93;100676.05;104779;1260;64059;-53
2023/08/24 06:34:57;;;;;;;;;;;;;;;23.40;46.65;100680.05;104944;1260;59751;-54
2023/08/24 06:37:36;;;;;;;;;;;;;;;23.40;46.01;100676.72;104783;1260;60764;-54
2023/08/24 06:40:40;;;;;;;;;;;;;;;23.41;45.67;100684.23;104396;1270;64235;-56
2023/08/24 06:43:32;;;;;;;;;;;;;;;23.43;45.75;100683.99;104834;1260;61547;-56
2023/08/24 06:46:31;;;;;;;;;;;;;;;23.45;46.15;100684.51;104400;1263;63960;-56
2023/08/24 06:48:57;;;;;;;;;;;;;;;23.50;46.81;100684.61;104438;1263;59684;-57
2023/08/24 06:51:25;;;;;;;;;;;;;;;23.55;46.78;100685.79;104540;1260;61515;-58
2023/08/24 06:53:51;;;;;;;;;;;;;;;23.59;45.99;100684.77;105285;1261;64248;-57
2023/08/24 06:56:18;;;;;;;;;;;;;;;23.61;44.89;100687.95;104988;1260;61424;-55
2023/08/24 06:58:45;;;;;;;;;;;;;;;23.61;44.08;100690.52;104864;1265;63862;-55
2023/08/24 07:01:12;;;;;;;;;;;;;;;23.65;44.21;100693.80;104868;1265;59760;-56
2023/08/24 07:03:38;;;;;;;;;;;;;;;23.68;43.97;100691.73;104869;1262;59574;-57
2023/08/24 07:06:14;;;;;;;;;;;;;;;23.70;43.74;100693.11;105222;1264;64367;-58
2023/08/24 07:08:44;;;;;;;;;;;;;;;23.71;43.84;100693.90;104476;1261;61673;-59
2023/08/24 07:11:10;;;;;;;;;;;;;;;23.72;44.43;100697.29;105195;1260;59748;-53
2023/08/24 07:13:37;;;;;;;;;;;;;;;23.76;44.72;100694.91;104888;1262;59736;-55
2023/08/24 07:16:04;;;;;;;;;;;;;;;23.79;44.84;100697.19;105008;1261;59747;-55
2023/08/24 07:18:31;;;;;;;;;;;;;;;23.83;44.73;100695.61;105012;1261;64378;-55
2023/08/24 07:21:23;;;;;;;;;;;;;;;23.87;44.78;100696.15;104984;1260;61391;-57
2023/08/24 07:23:50;;;;;;;;;;;;;;;23.91;44.27;100694.52;105542;1253;64507;-58
2023/08/24 07:26:16;;;;;;;;;;;;;;;23.94;43.94;100694.66;105729;1253;59641;-56
2023/08/24 07:28:43;;;;;;;;;;;;;;;23.98;43.62;100697.18;105329;1253;60022;-56
2023/08/24 07:31:10;;;;;;;;;;;;;;;24.01;43.77;100694.63;105289;1258;64142;-58
2023/08/24 07:33:40;;;;;;;;;;;;;;;24.05;43.66;100697.40;105569;1252;61760;-55
2023/08/24 07:39:32;;;;;;;;;;;;;;;24.18;43.37;100694.36;105791;1257;59347;-56
2023/08/24 07:42:02;;;;;;;;;;;;;;;24.26;43.39;100695.45;105765;1261;59567;-55
2023/08/24 07:44:30;;;;;;;;;;;;;;;24.34;43.66;100695.48;105528;1253;64487;-56
2023/08/24 07:46:56;;;;;;;;;;;;;;;24.41;43.24;100692.72;105337;1253;61770;-57
2023/08/24 07:49:23;;;;;;;;;;;;;;;24.48;42.91;100695.38;105337;1251;63897;-57
2023/08/24 07:51:50;;;;;;;;;;;;;;;24.54;42.71;100691.86;105320;1253;59701;-57
2023/08/24 07:54:17;;;;;;;;;;;;;;;24.59;41.61;100694.65;105413;1253;59760;-58
2023/08/24 07:56:43;;;;;;;;;;;;;;;24.63;41.72;100694.16;105541;1253;59750;-57
2023/08/24 07:59:10;;;;;;;;;;;;;;;24.68;41.55;100692.52;107072;1256;61515;-57
2023/08/24 08:01:39;;;;;;;;;;;;;;;24.74;41.71;100690.45;106895;1253;73882;-86
2023/08/24 08:04:09;;;;;;;;;;;;;;;24.78;41.43;100690.91;108664;1254;59587;-86
2023/08/24 08:06:38;;;;;;;;;;;;;;;24.83;40.98;100691.69;108599;1255;58959;-85
2023/08/24 08:09:12;;;;;;;;;;;;;;;24.89;40.44;100686.84;108462;1256;65168;-86
2023/08/24 08:11:39;;;;;;;;;;;;;;;24.94;40.53;100684.63;108760;1254;62987;-85
2023/08/24 08:14:12;;;;;;;;;;;;;;;25.04;40.05;100687.84;108735;1254;63977;-85
2023/08/24 08:16:40;;;;;;;;;;;;;;;25.12;39.78;100683.63;108501;1256;58406;-88
2023/08/24 08:19:28;;;;;;;;;;;;;;;25.20;39.66;100677.73;108578;1257;58428;-86
2023/08/24 08:22:52;;;;;;;;;;;;;;;25.32;39.51;100677.88;108576;1254;73386;-87
2023/08/24 08:25:42;;;;;;;;;;;;;;;25.43;38.95;100671.73;108470;1254;63791;-87
2023/08/24 08:28:14;;;;;;;;;;;;;;;25.51;39.04;100668.59;108659;1261;63358;-86
2023/08/24 08:30:53;;;;;;;;;;;;;;;25.59;39.64;100667.64;108641;1256;57870;-86
2023/08/24 08:33:36;;;;;;;;;;;;;;;25.68;40.05;100666.89;108490;1254;57543;-87
2023/08/24 08:36:17;;;;;;;;;;;;;;;25.80;39.32;100664.41;108640;1257;65025;-86
2023/08/24 08:38:53;;;;;;;;;;;;;;;25.89;38.94;100662.95;108687;1257;60547;-87
2023/08/24 08:41:23;;;;;;;;;;;;;;;25.94;39.04;100662.17;108570;1256;65239;-87
2023/08/24 08:43:53;;;;;;;;;;;;;;;25.95;38.31;100662.09;108430;1256;57916;-87
2023/08/24 08:46:38;;;;;;;;;;;;;;;25.97;38.82;100659.48;108657;1254;57968;-86
2023/08/24 08:49:43;;;;;;;;;;;;;;;25.98;38.86;100658.86;108319;1256;64605;-86
2023/08/24 08:52:36;;;;;;;;;;;;;;;26.02;38.16;100661.77;108744;1257;62363;-87
2023/08/24 08:55:37;;;;;;;;;;;;;;;26.11;38.47;100659.64;108166;1256;62761;-87
2023/08/24 08:59:05;;;;;;;;;;;;;;;26.19;37.73;100655.59;108311;1256;57612;-87
2023/08/24 09:01:50;;;;;;;;;;;;;;;26.30;37.44;100650.48;108266;1255;60253;-87
2023/08/24 09:04:36;;;;;;;;;;;;;;;26.40;37.78;100647.66;108142;1262;63555;-85
2023/08/24 09:07:25;;;;;;;;;;;;;;;26.44;38.08;100647.79;108220;1259;61688;-87
2023/08/24 09:13:57;;;;;;;;;;;;;;;26.53;37.90;100643.14;106489;1258;59671;-57
2023/08/24 09:16:24;;;;;;;;;;;;;;;26.61;37.98;100639.05;105090;1257;60075;-60
2023/08/24 09:18:51;;;;;;;;;;;;;;;26.69;36.11;100640.44;105977;1259;64177;-62
2023/08/24 09:21:56;;;;;;;;;;;;;;;26.74;36.04;100639.30;104971;1255;61501;-61
2023/08/24 09:25:06;;;;;;;;;;;;;;;26.79;36.54;100638.27;106400;1257;64051;-60
2023/08/24 09:27:33;;;;;;;;;;;;;;;26.76;36.32;100636.98;105981;1256;60048;-60
2023/08/24 09:29:59;;;;;;;;;;;;;;;26.69;36.06;100634.83;105683;1258;60448;-59
2023/08/24 09:32:34;;;;;;;;;;;;;;;26.61;36.41;100635.22;105397;1258;60516;-59
2023/08/24 09:35:05;;;;;;;;;;;;;;;26.54;36.49;100641.14;105316;1261;60379;-60
2023/08/24 09:37:34;;;;;;;;;;;;;;;26.49;36.76;100640.94;105347;1256;66195;-60
2023/08/24 09:40:04;;;;;;;;;;;;;;;26.47;36.51;100641.73;106370;1257;60516;-60
2023/08/24 09:42:49;;;;;;;;;;;;;;;26.46;35.79;100643.29;105944;1261;60456;-63
2023/08/24 09:45:22;;;;;;;;;;;;;;;26.44;35.54;100639.85;105544;1257;65100;-61
2023/08/24 09:47:55;;;;;;;;;;;;;;;26.44;35.75;100639.06;106132;1256;61629;-62
2023/08/24 09:53:40;;;;;;;;;;;;;;;26.49;35.83;100637.65;105045;1259;60460;-61
2023/08/24 09:56:07;;;;;;;;;;;;;;;26.58;36.02;100632.58;105817;1256;60446;-57
2023/08/24 09:58:34;;;;;;;;;;;;;;;26.72;36.16;100629.40;105639;1261;66288;-58
2023/08/24 10:01:01;;;;;;;;;;;;;;;26.85;35.08;100629.48;104714;1258;61836;-56
2023/08/24 10:04:06;;;;;;;;;;;;;;;26.93;34.20;100625.48;105469;1260;63089;-58
2023/08/24 10:06:34;;;;;;;;;;;;;;;26.93;33.75;100622.04;105231;1257;60701;-58
2023/08/24 10:09:04;;;;;;;;;;;;;;;26.90;33.36;100617.79;104987;1256;60437;-59
2023/08/24 10:11:30;;;;;;;;;;;;;;;26.89;33.75;100618.20;105196;1260;65015;-56
2023/08/24 10:14:09;;;;;;;;;;;;;;;26.90;33.73;100617.20;105436;1258;62333;-57
2023/08/24 10:16:37;;;;;;;;;;;;;;;26.91;33.74;100616.91;104766;1260;64249;-56
2023/08/24 10:19:03;;;;;;;;;;;;;;;26.91;33.90;100615.70;105090;1258;60364;-58
2023/08/24 10:21:30;;;;;;;;;;;;;;;26.90;33.45;100613.47;104677;1260;60465;-59
2023/08/24 10:23:57;;;;;;;;;;;;;;;26.90;33.21;100609.64;105395;1258;65145;-60
2023/08/24 10:26:23;;;;;;;;;;;;;;;26.91;33.49;100608.30;106214;1257;61802;-60
2023/08/24 10:28:51;;;;;;;;;;;;;;;26.95;34.09;100605.68;105457;1258;64086;-60
2023/08/24 10:31:18;;;;;;;;;;;;;;;27.00;32.96;100604.45;104636;1259;60560;-63
2023/08/24 10:33:48;;;;;;;;;;;;;;;27.01;32.74;100605.27;104713;1258;60580;-59
2023/08/24 10:36:14;;;;;;;;;;;;;;;27.04;32.74;100601.95;106624;1257;65096;-61
2023/08/24 10:38:42;;;;;;;;;;;;;;;27.07;32.75;100605.66;105161;1255;61692;-59
2023/08/24 10:41:08;;;;;;;;;;;;;;;27.11;32.96;100603.11;108869;1258;63713;-61
2023/08/24 10:43:38;;;;;;;;;;;;;;;27.17;33.61;100601.54;108882;1256;58498;-58
2023/08/24 10:46:05;;;;;;;;;;;;;;;27.24;32.59;100598.41;108811;1255;58502;-61
2023/08/24 10:48:51;;;;;;;;;;;;;;;27.31;32.56;100595.95;107444;1257;63939;-58
2023/08/24 10:51:19;;;;;;;;;;;;;;;27.34;33.13;100597.36;104692;1259;63241;-59
2023/08/24 10:53:48;;;;;;;;;;;;;;;27.36;32.25;100592.96;105270;1256;63721;-59
2023/08/24 10:56:15;;;;;;;;;;;;;;;27.36;32.22;100592.42;105096;1259;60465;-57
2023/08/24 10:58:43;;;;;;;;;;;;;;;27.38;32.65;100591.28;105149;1257;60482;-58
2023/08/24 11:01:21;;;;;;;;;;;;;;;27.40;33.14;100588.02;104972;1258;65036;-58
2023/08/24 11:03:49;;;;;;;;;;;;;;;27.43;32.71;100582.45;104778;1261;62661;-57
2023/08/24 11:06:20;;;;;;;;;;;;;;;27.45;32.50;100579.91;105354;1261;63862;-57
2023/08/24 11:08:47;;;;;;;;;;;;;;;27.53;32.44;100582.84;105402;1258;60379;-60
2023/08/24 11:11:21;;;;;;;;;;;;;;;27.66;32.18;100583.80;105041;1256;60530;-59
2023/08/24 11:14:06;;;;;;;;;;;;;;;27.79;31.52;100580.45;104949;1261;65190;-59
2023/08/24 11:16:46;;;;;;;;;;;;;;;27.89;31.40;100576.59;105532;1259;60506;-60
2023/08/24 11:19:13;;;;;;;;;;;;;;;27.99;31.72;100574.42;105875;1260;62886;-62
2023/08/24 11:21:40;;;;;;;;;;;;;;;28.06;31.80;100568.05;105921;1256;60575;-59
2023/08/24 11:24:07;;;;;;;;;;;;;;;28.11;31.61;100566.48;105913;1258;60559;-61
2023/08/24 11:26:34;;;;;;;;;;;;;;;28.08;31.19;100564.30;105634;1258;65016;-59
2023/08/24 11:29:04;;;;;;;;;;;;;;;28.03;31.51;100565.27;104905;1256;61455;-59
2023/08/24 11:31:31;;;;;;;;;;;;;;;28.02;31.65;100564.38;106147;1255;63797;-60
2023/08/24 11:33:58;;;;;;;;;;;;;;;28.07;31.79;100560.05;108121;1258;61002;-55
2023/08/24 11:36:24;;;;;;;;;;;;;;;28.18;31.67;100560.48;105064;1258;61675;-57
2023/08/24 11:38:52;;;;;;;;;;;;;;;28.29;30.58;100558.73;105049;1261;64966;-57
2023/08/24 11:41:21;;;;;;;;;;;;;;;28.40;29.76;100556.70;105665;1258;61472;-57
2023/08/24 11:43:51;;;;;;;;;;;;;;;28.50;29.15;100554.48;105722;1259;64360;-58
2023/08/24 11:46:18;;;;;;;;;;;;;;;28.59;28.86;100546.30;105333;1259;61631;-56
2023/08/24 11:48:45;;;;;;;;;;;;;;;28.68;29.39;100543.13;105116;1258;61099;-60
2023/08/24 11:51:12;;;;;;;;;;;;;;;28.82;29.33;100538.38;105283;1258;65568;-57
2023/08/24 11:53:39;;;;;;;;;;;;;;;28.99;29.17;100536.15;105025;1258;62467;-54
2023/08/24 11:56:07;;;;;;;;;;;;;;;29.15;29.26;100536.90;104811;1259;64110;-56
2023/08/24 11:58:34;;;;;;;;;;;;;;;29.27;28.59;100533.09;105167;1259;60465;-56
2023/08/24 12:01:28;;;;;;;;;;;;;;;29.39;28.89;100534.29;104930;1255;60606;-57
2023/08/24 12:04:51;;;;;;;;;;;;;;;29.55;29.56;100536.01;104877;1257;63811;-56
2023/08/24 12:10:23;;;;;;;;;;;;;;;29.65;28.54;100527.98;104715;1259;63807;-58
2023/08/24 12:13:00;;;;;;;;;;;;;;;29.64;29.52;100529.71;104436;1258;60522;-56
2023/08/24 12:15:27;;;;;;;;;;;;;;;29.61;30.14;100530.04;106535;1258;60477;-56
2023/08/24 12:17:55;;;;;;;;;;;;;;;29.54;29.91;100532.25;104970;1256;65278;-58
2023/08/24 12:20:22;;;;;;;;;;;;;;;29.48;30.31;100533.95;104980;1257;63256;-56
2023/08/24 12:22:51;;;;;;;;;;;;;;;29.47;30.37;100527.84;104764;1259;62916;-54
2023/08/24 12:25:18;;;;;;;;;;;;;;;29.54;30.29;100524.13;105814;1256;60375;-59
2023/08/24 12:27:44;;;;;;;;;;;;;;;29.64;29.80;100524.77;105619;1256;60595;-58
2023/08/24 12:30:11;;;;;;;;;;;;;;;29.65;30.12;100525.91;106106;1257;65256;-53
2023/08/24 12:32:41;;;;;;;;;;;;;;;29.59;30.70;100526.97;105794;1259;60649;-57
2023/08/24 12:35:09;;;;;;;;;;;;;;;29.55;30.80;100527.94;104730;1264;64180;-69
2023/08/24 12:37:54;;;;;;;;;;;;;;;29.57;30.46;100520.27;104359;1258;60497;-62
2023/08/24 12:40:24;;;;;;;;;;;;;;;29.63;30.42;100513.86;105702;1256;61866;-64
2023/08/24 12:42:51;;;;;;;;;;;;;;;29.69;30.46;100512.80;104656;1259;66899;-59
2023/08/24 12:45:18;;;;;;;;;;;;;;;29.74;29.72;100511.41;104531;1258;61801;-70
2023/08/24 12:47:44;;;;;;;;;;;;;;;29.81;29.92;100509.23;104828;1258;65146;-66
2023/08/24 12:50:11;;;;;;;;;;;;;;;29.93;29.69;100506.48;105482;1259;60865;-67
2023/08/24 12:52:59;;;;;;;;;;;;;;;30.04;29.10;100504.75;104938;1261;60512;-70
2023/08/24 12:55:31;;;;;;;;;;;;;;;30.15;28.70;100504.08;104330;1258;65396;-66
2023/08/24 12:57:58;;;;;;;;;;;;;;;30.19;28.54;100503.61;104906;1262;61739;-61
2023/08/24 13:00:25;;;;;;;;;;;;;;;30.15;28.84;100505.55;105020;1260;64621;-61
2023/08/24 13:02:51;;;;;;;;;;;;;;;30.07;28.66;100505.20;104503;1256;60762;-61
2023/08/24 13:05:18;;;;;;;;;;;;;;;29.95;28.25;100501.95;104512;1257;60566;-60
2023/08/24 13:07:45;;;;;;;;;;;;;;;29.78;28.78;100497.52;104843;1259;63794;-62
2023/08/24 13:10:12;;;;;;;;;;;;;;;29.75;29.92;100498.27;105140;1257;61492;-62
2023/08/24 13:12:39;;;;;;;;;;;;;;;29.87;30.30;100495.48;104831;1258;64213;-62
2023/08/24 13:15:06;;;;;;;;;;;;;;;30.04;29.79;100496.45;104787;1258;60547;-61
2023/08/24 13:17:33;;;;;;;;;;;;;;;30.21;29.42;100495.27;105214;1259;60495;-63
2023/08/24 13:20:21;;;;;;;;;;;;;;;30.41;28.84;100490.60;104491;1261;65026;-61